createdAt,value
2022-11-26T00:04:46.109Z,8.10
2022-11-26T00:09:51.362Z,7.28
2022-11-26T00:14:54.374Z,7.95
2022-11-26T00:19:56.855Z,6.38
2022-11-26T00:24:59.438Z,10.38
2022-11-26T00:30:01.688Z,6.45
2022-11-26T00:35:04.204Z,8.35
2022-11-26T00:40:07.220Z,10.88
2022-11-26T00:45:36.452Z,6.70
2022-11-26T00:50:42.932Z,7.65
2022-11-26T00:55:48.260Z,7.55
2022-11-26T01:00:51.406Z,12.18
2022-11-26T01:05:57.653Z,10.68
2022-11-26T01:11:01.422Z,8.38
2022-11-26T01:16:16.657Z,13.15
2022-11-26T01:21:19.916Z,12.40
2022-11-26T01:26:25.067Z,10.32
2022-11-26T01:31:29.263Z,11.15
2022-11-26T01:36:34.469Z,12.05
2022-11-26T01:41:55.285Z,12.43
2022-11-26T01:46:59.172Z,12.73
2022-11-26T01:52:19.379Z,13.27
2022-11-26T01:57:25.873Z,10.88
2022-11-26T02:02:30.360Z,14.75
2022-11-26T02:07:32.951Z,8.98
2022-11-26T02:12:35.305Z,21.15
2022-11-26T02:17:43.277Z,20.40
2022-11-26T02:22:59.017Z,14.73
2022-11-26T02:28:27.291Z,22.02
2022-11-26T02:33:40.791Z,16.13
2022-11-26T02:38:43.357Z,18.58
2022-11-26T02:43:46.571Z,18.63
2022-11-26T02:48:52.577Z,20.73
2022-11-26T02:53:56.111Z,14.00
2022-11-26T02:58:59.881Z,15.70
2022-11-26T03:04:09.069Z,22.58
2022-11-26T03:09:11.372Z,16.25
2022-11-26T03:14:13.751Z,16.77
2022-11-26T03:19:15.979Z,12.35
2022-11-26T03:24:18.318Z,13.05
2022-11-26T03:29:20.714Z,11.30
2022-11-26T03:34:22.994Z,21.30
2022-11-26T03:39:25.423Z,18.40
2022-11-26T03:44:27.647Z,20.17
2022-11-26T03:49:30.103Z,8.93
2022-11-26T03:54:32.388Z,12.55
2022-11-26T03:59:34.668Z,14.35
2022-11-26T04:04:37.489Z,8.23
2022-11-26T04:09:40.146Z,9.68
2022-11-26T04:14:42.421Z,12.98
2022-11-26T04:19:44.643Z,7.95
2022-11-26T04:24:46.845Z,9.00
2022-11-26T04:29:49.051Z,11.80
2022-11-26T04:34:51.362Z,14.35
2022-11-26T04:39:53.579Z,11.48
2022-11-26T04:44:55.899Z,12.70
2022-11-26T04:49:58.134Z,11.88
2022-11-26T04:55:00.301Z,11.00
2022-11-26T05:00:02.673Z,27.98
2022-11-26T05:05:05.241Z,15.00
2022-11-26T05:10:09.356Z,13.50
2022-11-26T05:15:12.169Z,13.00
2022-11-26T05:20:15.488Z,12.65
2022-11-26T05:25:18.050Z,23.17
2022-11-26T05:30:20.670Z,19.42
2022-11-26T05:35:23.318Z,16.35
2022-11-26T05:40:25.712Z,26.23
2022-11-26T05:45:28.078Z,21.58
2022-11-26T05:50:30.441Z,15.93
2022-11-26T05:55:33.001Z,22.83
2022-11-26T06:00:35.253Z,20.25
2022-11-26T06:05:37.594Z,30.50
2022-11-26T06:10:42.892Z,22.80
2022-11-26T06:15:45.173Z,34.22
2022-11-26T06:20:47.387Z,29.08
2022-11-26T06:25:49.621Z,22.92
2022-11-26T06:30:52.001Z,20.48
2022-11-26T06:35:58.550Z,24.67
2022-11-26T06:41:06.515Z,19.90
2022-11-26T06:46:10.666Z,19.58
2022-11-26T06:51:15.920Z,17.45
2022-11-26T06:56:19.332Z,18.52
2022-11-26T07:01:24.713Z,20.10
2022-11-26T07:06:29.928Z,24.02
2022-11-26T07:11:32.714Z,20.80
2022-11-26T07:16:35.762Z,20.42
2022-11-26T07:21:38.517Z,19.60
2022-11-26T07:26:40.957Z,20.30
2022-11-26T07:31:43.367Z,18.45
2022-11-26T07:36:45.686Z,26.20
2022-11-26T07:41:47.911Z,20.27
2022-11-26T07:46:50.344Z,20.80
2022-11-26T07:51:52.576Z,20.05
2022-11-26T07:56:54.912Z,15.90
2022-11-26T08:01:57.632Z,10.43
2022-11-26T08:07:00.081Z,10.18
2022-11-26T08:12:02.496Z,7.70
2022-11-26T08:17:04.779Z,10.43
2022-11-26T08:22:07.156Z,4.57
2022-11-26T08:27:09.499Z,8.80
2022-11-26T08:32:11.728Z,5.88
2022-11-26T08:37:14.098Z,6.43
2022-11-26T08:42:16.449Z,6.95
2022-11-26T08:47:18.736Z,11.68
2022-11-26T08:52:21.012Z,9.23
2022-11-26T08:57:23.207Z,5.55
2022-11-26T09:02:25.360Z,12.18
2022-11-26T09:07:28.672Z,8.00
2022-11-26T09:12:30.867Z,12.73
2022-11-26T09:17:32.992Z,11.20
2022-11-26T09:22:35.887Z,14.90
2022-11-26T09:27:38.116Z,9.82
2022-11-26T09:32:40.328Z,10.68
2022-11-26T09:37:46.051Z,10.95
2022-11-26T09:43:06.083Z,6.03
2022-11-26T09:48:15.403Z,7.25
2022-11-26T09:53:25.840Z,3.80
2022-11-26T09:58:45.661Z,5.72
2022-11-26T10:03:48.372Z,9.02
2022-11-26T10:14:40.770Z,7.07
2022-11-26T10:20:09.709Z,4.55
2022-11-26T10:25:25.192Z,3.97
2022-11-26T10:30:30.602Z,4.78
2022-11-26T10:35:33.642Z,4.72
2022-11-26T10:40:36.185Z,3.65
2022-11-26T10:45:40.023Z,8.15
2022-11-26T10:50:48.067Z,6.38
2022-11-26T10:55:52.543Z,7.68
2022-11-26T11:00:59.947Z,3.67
2022-11-26T11:06:22.360Z,4.07
2022-11-26T11:11:30.690Z,2.90
2022-11-26T11:16:41.279Z,3.65
2022-11-26T11:21:48.161Z,4.07
2022-11-26T11:26:55.771Z,5.43
2022-11-26T11:31:58.155Z,5.78
2022-11-26T11:37:05.368Z,7.45
2022-11-26T11:42:22.540Z,5.20
2022-11-26T11:47:38.874Z,7.88
2022-11-26T11:53:15.988Z,5.32
2022-11-26T11:58:47.267Z,3.17
2022-11-26T12:04:05.084Z,4.75
2022-11-26T12:09:41.373Z,7.05
2022-11-26T12:14:48.747Z,6.28
2022-11-26T12:19:50.804Z,2.92
2022-11-26T12:25:30.115Z,4.63
2022-11-26T12:30:52.005Z,4.38
2022-11-26T12:36:00.719Z,4.75
2022-11-26T12:41:08.159Z,7.75
2022-11-26T12:46:20.473Z,5.05
2022-11-26T12:51:37.742Z,7.50
2022-11-26T12:56:50.981Z,8.00
2022-11-26T13:01:53.295Z,5.75
2022-11-26T13:07:04.267Z,5.35
2022-11-26T13:12:15.338Z,4.93
2022-11-26T13:17:21.812Z,3.67
2022-11-26T13:22:41.619Z,9.68
2022-11-26T13:27:49.871Z,4.72
2022-11-26T13:33:13.520Z,9.50
2022-11-26T13:38:23.866Z,4.63
2022-11-26T13:43:26.038Z,4.75
2022-11-26T13:48:44.918Z,5.70
2022-11-26T13:54:10.278Z,4.03
2022-11-26T13:59:25.377Z,6.00
2022-11-26T14:04:30.360Z,6.55
2022-11-26T14:09:50.528Z,3.92
2022-11-26T14:14:53.146Z,4.72
2022-11-26T14:19:59.032Z,5.38
2022-11-26T14:25:09.628Z,6.18
2022-11-26T14:30:23.312Z,8.48
2022-11-26T14:35:33.924Z,9.05
2022-11-26T14:40:38.897Z,6.70
2022-11-26T14:45:43.257Z,8.88
2022-11-26T14:50:45.737Z,7.63
2022-11-26T14:55:49.496Z,7.05
2022-11-26T15:01:29.861Z,19.30
2022-11-26T15:06:38.630Z,17.38
2022-11-26T15:11:50.793Z,13.13
2022-11-26T15:17:00.939Z,14.27
2022-11-26T15:22:28.720Z,15.38
2022-11-26T15:27:41.892Z,29.20
2022-11-26T15:32:44.397Z,28.20
2022-11-26T15:37:46.625Z,21.95
2022-11-26T15:42:51.468Z,21.13
2022-11-26T15:47:55.356Z,22.85
2022-11-26T15:53:01.943Z,22.77
2022-11-26T15:58:09.291Z,22.73
2022-11-26T16:03:36.202Z,26.48
2022-11-26T16:08:39.818Z,35.88
2022-11-26T16:13:42.079Z,24.70
2022-11-26T16:18:49.052Z,25.88
2022-11-26T16:24:18.277Z,27.35
2022-11-26T16:29:20.427Z,43.45
2022-11-26T16:34:23.352Z,46.42
2022-11-26T16:39:30.059Z,38.10
2022-11-26T16:44:32.842Z,48.42
2022-11-26T16:49:35.217Z,41.47
2022-11-26T16:54:37.862Z,33.45
2022-11-26T16:59:41.094Z,28.48
2022-11-26T17:04:44.089Z,25.40
2022-11-26T17:09:46.515Z,22.02
2022-11-26T17:14:49.550Z,21.17
2022-11-26T17:19:51.973Z,25.13
2022-11-26T17:24:54.236Z,30.63
2022-11-26T17:29:56.703Z,31.92
2022-11-26T17:34:59.060Z,38.10
2022-11-26T17:40:01.319Z,30.95
2022-11-26T17:45:03.971Z,28.23
2022-11-26T17:50:08.396Z,27.30
2022-11-26T17:55:12.038Z,32.13
2022-11-26T18:00:21.027Z,37.75
2022-11-26T18:05:23.932Z,34.40
2022-11-26T18:10:26.268Z,25.75
2022-11-26T18:15:28.612Z,32.72
2022-11-26T18:20:31.513Z,28.73
2022-11-26T18:25:35.234Z,32.83
2022-11-26T18:30:38.067Z,42.50
2022-11-26T18:35:42.507Z,40.03
2022-11-26T18:40:44.905Z,38.50
2022-11-26T18:45:47.786Z,32.65
2022-11-26T18:50:57.704Z,34.95
2022-11-26T18:56:00.058Z,43.17
2022-11-26T19:01:02.853Z,42.45
2022-11-26T19:06:06.232Z,43.78
2022-11-26T19:11:14.034Z,46.47
2022-11-26T19:16:18.936Z,53.25
2022-11-26T19:21:29.642Z,55.17
2022-11-26T19:26:32.230Z,38.80
2022-11-26T19:31:36.449Z,48.90
2022-11-26T19:36:38.943Z,48.42
2022-11-26T19:41:41.226Z,48.10
2022-11-26T19:46:43.424Z,44.60
2022-11-26T19:51:45.785Z,68.38
2022-11-26T19:56:48.792Z,59.90
2022-11-26T20:01:51.240Z,95.57
2022-11-26T20:06:54.202Z,58.25
2022-11-26T20:11:56.389Z,65.60
2022-11-26T20:17:01.179Z,57.45
2022-11-26T20:22:04.192Z,63.15
2022-11-26T20:27:06.524Z,59.60
2022-11-26T20:32:09.005Z,78.82
2022-11-26T20:37:11.377Z,80.97
2022-11-26T20:42:15.834Z,69.25
2022-11-26T20:47:18.102Z,67.00
2022-11-26T20:52:22.106Z,51.00
2022-11-26T20:57:24.302Z,44.92
2022-11-26T21:02:28.199Z,45.03
2022-11-26T21:07:30.533Z,50.70
2022-11-26T21:12:32.965Z,60.33
2022-11-26T21:17:35.453Z,38.72
2022-11-26T21:22:38.609Z,29.92
2022-11-26T21:27:40.828Z,30.48
2022-11-26T21:32:43.218Z,31.40
2022-11-26T21:37:46.065Z,46.70
2022-11-26T21:42:48.286Z,68.65
2022-11-26T21:47:53.049Z,92.78
2022-11-26T21:52:55.268Z,31.00
2022-11-26T21:57:57.453Z,28.60
2022-11-26T22:02:59.855Z,30.40
2022-11-26T22:08:02.180Z,27.80
2022-11-26T22:13:04.411Z,33.78
2022-11-26T22:18:06.673Z,32.13
2022-11-26T22:23:08.888Z,33.65
2022-11-26T22:28:11.368Z,31.50
2022-11-26T22:33:13.603Z,31.60
2022-11-26T22:38:15.887Z,24.88
2022-11-26T22:43:18.183Z,21.70
2022-11-26T22:48:20.591Z,35.47
2022-11-26T22:53:23.636Z,23.70
2022-11-26T22:58:27.371Z,26.85
2022-11-26T23:03:32.243Z,16.23
2022-11-26T23:08:35.737Z,21.30
2022-11-26T23:13:40.003Z,18.67
2022-11-26T23:18:42.753Z,19.73
2022-11-26T23:23:46.135Z,24.02
2022-11-26T23:28:48.527Z,24.90
2022-11-26T23:33:52.345Z,21.02
2022-11-26T23:38:55.268Z,22.30
2022-11-26T23:43:57.851Z,21.65
2022-11-26T23:49:00.144Z,18.50
2022-11-26T23:54:02.469Z,18.38
2022-11-26T23:59:05.437Z,16.63
